Time;durP1;ratioP1;P1;durP2;ratioP2;P2;SDS_P1;SDS_P2;PMS_P1;PMS_P2;Temp;Humidity;BMP_temperature;BMP_pressure;BME280_temperature;BME280_humidity;BME280_pressure;Samples;Min_cycle;Max_cycle;Signal;HPM_P1;HPM_P2
2021/08/29 00:02:09;;;;;;;2.55;2.35;;;;;;;20.33;100.00;96355.84;5102045;28;20105;-67
2021/08/29 00:04:36;;;;;;;1.65;1.55;;;;;;;20.41;100.00;96357.19;5103749;28;20051;-66
2021/08/29 00:07:03;;;;;;;1.40;1.38;;;;;;;20.44;100.00;96361.94;5104571;28;20054;-64
2021/08/29 00:09:30;;;;;;;1.38;1.38;;;;;;;20.46;100.00;96354.63;5108440;28;20071;-66
2021/08/29 00:11:56;;;;;;;1.80;1.75;;;;;;;20.31;100.00;96319.75;5105631;28;20537;-63
2021/08/29 00:14:23;;;;;;;0.82;0.82;;;;;;;20.55;100.00;96345.50;5107448;28;20506;-66
2021/08/29 00:16:50;;;;;;;1.33;1.33;;;;;;;20.53;100.00;96337.50;5107884;28;20429;-66
2021/08/29 00:19:17;;;;;;;1.63;1.50;;;;;;;20.46;100.00;96322.88;5107154;28;20522;-66
2021/08/29 00:21:43;;;;;;;0.80;0.80;;;;;;;19.98;100.00;96250.13;5107531;28;20062;-67
2021/08/29 00:24:10;;;;;;;1.00;1.00;;;;;;;20.57;100.00;96337.38;5105969;28;20112;-64
2021/08/29 00:26:37;;;;;;;0.90;0.90;;;;;;;20.61;100.00;96338.06;5107511;28;20130;-65
2021/08/29 00:29:04;;;;;;;1.00;1.00;;;;;;;20.61;100.00;96329.63;5107554;28;20425;-64
2021/08/29 00:31:30;;;;;;;2.30;2.20;;;;;;;20.66;100.00;96331.88;5105554;28;20062;-65
2021/08/29 00:33:57;;;;;;;1.00;1.00;;;;;;;20.71;100.00;96334.88;5105615;28;20050;-66
2021/08/29 00:36:24;;;;;;;1.73;1.63;;;;;;;20.65;100.00;96333.09;5107135;28;20525;-65
2021/08/29 00:38:51;;;;;;;2.00;1.90;;;;;;;20.70;100.00;96326.91;5107459;28;20441;-66
2021/08/29 00:41:18;;;;;;;0.90;0.90;;;;;;;20.64;100.00;96317.47;5107091;27;20624;-66
2021/08/29 00:43:45;;;;;;;1.00;1.00;;;;;;;20.75;100.00;96320.69;5106870;27;20054;-67
2021/08/29 00:46:11;;;;;;;1.45;1.45;;;;;;;20.07;100.00;96213.66;5107180;28;20063;-66
2021/08/29 00:48:44;;;;;;;1.05;1.05;;;;;;;20.61;100.00;96298.66;5105281;28;20048;-64
2021/08/29 00:51:12;;;;;;;1.00;1.00;;;;;;;20.37;100.00;96283.41;5107000;27;20051;-66
2021/08/29 00:53:44;;;;;;;1.00;1.00;;;;;;;20.67;100.00;96320.16;5107601;28;20062;-66
2021/08/29 00:56:11;;;;;;;1.13;1.13;;;;;;;20.65;100.00;96317.00;5105523;28;20052;-65
2021/08/29 00:58:38;;;;;;;0.90;0.90;;;;;;;20.53;100.00;96308.59;5106809;28;20047;-66
2021/08/29 01:01:05;;;;;;;1.10;1.10;;;;;;;20.60;100.00;96295.06;5106658;28;20047;-62
2021/08/29 01:03:35;;;;;;;0.90;0.90;;;;;;;20.53;100.00;96274.81;5105607;28;20051;-63
2021/08/29 01:06:15;;;;;;;2.42;1.92;;;;;;;20.71;100.00;96305.94;5106845;28;20048;-62
2021/08/29 01:08:43;;;;;;;1.00;1.00;;;;;;;20.39;100.00;96247.16;5107479;28;20259;-62
2021/08/29 01:11:24;;;;;;;1.17;1.17;;;;;;;20.71;100.00;96303.13;5106795;28;20047;-61
2021/08/29 01:14:00;;;;;;;1.15;1.15;;;;;;;20.69;100.00;96295.13;5105130;28;20052;-63
2021/08/29 01:16:32;;;;;;;0.80;0.80;;;;;;;20.66;100.00;96290.41;5106974;28;20047;-64
2021/08/29 01:19:05;;;;;;;1.33;1.25;;;;;;;20.58;100.00;96288.31;5106184;28;20044;-65
2021/08/29 01:21:35;;;;;;;1.00;1.00;;;;;;;20.44;100.00;96283.16;5107057;28;20055;-67
2021/08/29 01:24:05;;;;;;;1.05;1.05;;;;;;;20.51;100.00;96294.19;5106626;28;20051;-65
2021/08/29 01:26:50;;;;;;;1.25;1.25;;;;;;;20.53;100.00;96286.84;5104880;28;20400;-65
2021/08/29 01:29:23;;;;;;;0.82;0.82;;;;;;;20.43;100.00;96298.47;5105900;28;20051;-65
2021/08/29 01:31:50;;;;;;;0.80;0.80;;;;;;;20.08;100.00;96246.16;5104508;28;20415;-66
2021/08/29 01:34:18;;;;;;;1.40;1.40;;;;;;;20.32;100.00;96275.53;5106278;28;20052;-66
2021/08/29 01:36:49;;;;;;;1.65;1.58;;;;;;;20.48;100.00;96279.00;5106643;28;20059;-65
2021/08/29 01:39:16;;;;;;;0.80;0.80;;;;;;;20.56;100.00;96273.91;5105887;28;20048;-66
2021/08/29 01:41:45;;;;;;;1.15;1.15;;;;;;;20.50;100.00;96270.88;5104627;28;20060;-64
2021/08/29 01:44:12;;;;;;;0.90;0.90;;;;;;;20.58;100.00;96272.19;5104725;28;20059;-66
2021/08/29 01:46:41;;;;;;;0.90;0.90;;;;;;;20.57;100.00;96264.22;5104632;28;20052;-66
2021/08/29 01:49:10;;;;;;;0.93;0.93;;;;;;;20.59;100.00;96256.13;5105408;28;20051;-64
2021/08/29 01:51:38;;;;;;;0.77;0.77;;;;;;;20.63;100.00;96262.38;5104303;28;20059;-64
2021/08/29 01:54:05;;;;;;;1.00;1.00;;;;;;;20.25;100.00;96191.41;5104630;28;20544;-65
2021/08/29 01:56:59;;;;;;;1.13;1.13;;;;;;;20.69;100.00;96260.59;5105970;28;20101;-66
2021/08/29 01:59:26;;;;;;;0.80;0.80;;;;;;;20.46;100.00;96216.75;5105900;28;20043;-64
2021/08/29 02:01:54;;;;;;;1.00;1.00;;;;;;;20.42;100.00;96218.91;5106354;28;20062;-66
2021/08/29 02:04:22;;;;;;;0.90;0.90;;;;;;;20.84;100.00;96261.66;5105850;28;20047;-66
2021/08/29 02:07:37;;;;;;;0.90;0.90;;;;;;;20.85;100.00;96261.19;5106017;28;20134;-66
2021/08/29 02:10:07;;;;;;;1.40;1.20;;;;;;;20.79;100.00;96262.22;5105705;28;20094;-66
2021/08/29 02:12:55;;;;;;;0.88;0.88;;;;;;;20.87;100.00;96257.91;5104987;27;20052;-64
2021/08/29 02:15:29;;;;;;;1.00;1.00;;;;;;;20.87;100.00;96255.09;5105403;28;20484;-64
2021/08/29 02:17:57;;;;;;;;;;;;;;;20.85;100.00;96258.38;5104350;28;20048;-64
2021/08/29 02:20:25;;;;;;;0.90;0.90;;;;;;;20.34;100.00;96194.28;5105538;28;19934;-63
2021/08/29 02:22:54;;;;;;;0.90;0.90;;;;;;;20.07;100.00;96174.31;5103629;28;20218;-66
2021/08/29 02:25:20;;;;;;;0.90;0.90;;;;;;;20.60;100.00;96257.66;5103839;28;20066;-66
2021/08/29 02:27:48;;;;;;;1.13;1.13;;;;;;;20.07;100.00;96175.09;5103731;28;20930;-66
2021/08/29 02:30:16;;;;;;;0.80;0.80;;;;;;;20.02;100.00;96160.81;5102324;28;20137;-62
2021/08/29 02:32:43;;;;;;;1.00;1.00;;;;;;;20.54;100.00;96251.06;5104703;28;20441;-63
2021/08/29 02:35:11;;;;;;;4.68;2.45;;;;;;;20.49;100.00;96248.81;5104685;28;20136;-65
2021/08/29 02:37:40;;;;;;;0.75;0.75;;;;;;;20.47;100.00;96248.50;5104863;27;20044;-65
2021/08/29 02:40:09;;;;;;;1.38;1.27;;;;;;;20.30;100.00;96230.19;5104529;28;20584;-64
2021/08/29 02:42:37;;;;;;;1.38;1.38;;;;;;;20.40;100.00;96248.72;5104745;28;20059;-65
2021/08/29 02:45:06;;;;;;;1.08;1.05;;;;;;;20.08;100.00;96209.59;5104842;28;20052;-65
2021/08/29 02:47:33;;;;;;;0.70;0.70;;;;;;;20.18;100.00;96237.44;5104778;28;20130;-65
2021/08/29 02:50:00;;;;;;;0.80;0.80;;;;;;;20.15;100.00;96243.16;5104869;28;20058;-65
2021/08/29 02:52:28;;;;;;;1.27;1.27;;;;;;;19.85;100.00;96201.56;5104501;28;20043;-65
2021/08/29 02:54:57;;;;;;;0.80;0.80;;;;;;;20.09;100.00;96244.94;5104614;28;20052;-64
2021/08/29 02:57:32;;;;;;;0.80;0.80;;;;;;;20.15;100.00;96227.09;5104989;28;20428;-64
2021/08/29 02:59:59;;;;;;;1.58;1.48;;;;;;;20.04;100.00;96228.63;5105227;28;20522;-66
2021/08/29 03:02:26;;;;;;;1.17;1.17;;;;;;;19.99;100.00;96223.56;5104736;28;20502;-64
2021/08/29 03:04:54;;;;;;;1.27;1.25;;;;;;;19.84;100.00;96233.72;5104419;28;20165;-65
2021/08/29 03:07:21;;;;;;;0.90;0.90;;;;;;;19.86;100.00;96220.78;5104539;28;20054;-64
2021/08/29 03:09:48;;;;;;;0.90;0.90;;;;;;;19.86;100.00;96234.03;5103981;27;20051;-64
2021/08/29 03:12:15;;;;;;;0.95;0.95;;;;;;;19.70;100.00;96217.28;5104136;28;20468;-65
2021/08/29 03:14:42;;;;;;;0.88;0.88;;;;;;;19.71;100.00;96230.13;5103101;28;20055;-65
2021/08/29 03:17:09;;;;;;;0.88;0.88;;;;;;;19.78;100.00;96238.31;5103816;28;20055;-64
2021/08/29 03:19:36;;;;;;;0.82;0.82;;;;;;;19.75;100.00;96225.97;5103934;28;20604;-64
2021/08/29 03:22:04;;;;;;;1.58;1.48;;;;;;;19.50;100.00;96248.44;5102309;28;20501;-65
2021/08/29 03:24:31;;;;;;;0.90;0.90;;;;;;;19.61;100.00;96242.47;5104373;28;20057;-63
2021/08/29 03:26:58;;;;;;;2.35;2.15;;;;;;;19.57;100.00;96255.84;5104152;28;20060;-66
2021/08/29 03:29:24;;;;;;;3.42;3.13;;;;;;;19.32;100.00;96204.03;5104478;28;20588;-65
2021/08/29 03:31:51;;;;;;;2.35;2.17;;;;;;;19.64;100.00;96253.59;5102629;28;20109;-65
2021/08/29 03:34:19;;;;;;;1.35;1.30;;;;;;;19.22;100.00;96188.25;5103797;28;20134;-63
2021/08/29 03:36:46;;;;;;;0.80;0.80;;;;;;;19.57;100.00;96247.44;5104189;28;20062;-66
2021/08/29 03:39:13;;;;;;;0.80;0.80;;;;;;;19.67;100.00;96252.72;5104247;28;20051;-63
2021/08/29 03:41:42;;;;;;;0.95;0.95;;;;;;;19.63;100.00;96240.00;5104158;28;20088;-65
2021/08/29 03:44:13;;;;;;;1.35;1.25;;;;;;;19.48;100.00;96229.22;5107835;28;20056;-65
2021/08/29 03:46:40;;;;;;;1.77;1.67;;;;;;;19.41;100.00;96209.75;5108559;27;20058;-64
2021/08/29 03:49:08;;;;;;;1.10;1.10;;;;;;;19.75;100.00;96258.88;5107842;28;20135;-66
2021/08/29 03:51:37;;;;;;;0.95;0.95;;;;;;;19.71;100.00;96247.78;5108029;28;20048;-65
2021/08/29 03:54:05;;;;;;;2.42;2.22;;;;;;;19.85;100.00;96263.41;5107838;28;20094;-66
2021/08/29 03:56:33;;;;;;;0.95;0.95;;;;;;;19.83;100.00;96265.84;5106462;28;20048;-66
2021/08/29 03:59:00;;;;;;;0.80;0.80;;;;;;;19.87;100.00;96261.69;5107719;28;20044;-66
2021/08/29 04:01:27;;;;;;;0.80;0.80;;;;;;;19.88;100.00;96263.28;5106222;28;20065;-66
2021/08/29 04:03:54;;;;;;;1.00;1.00;;;;;;;19.30;100.00;96164.38;5107185;28;20172;-66
2021/08/29 04:06:24;;;;;;;0.80;0.80;;;;;;;19.65;100.00;96265.66;5107760;28;20065;-64
2021/08/29 04:08:55;;;;;;;2.10;2.00;;;;;;;19.74;100.00;96272.16;5107388;28;20047;-63
2021/08/29 04:11:27;;;;;;;0.80;0.80;;;;;;;19.76;100.00;96282.97;5107572;28;20490;-64
2021/08/29 04:13:54;;;;;;;1.02;1.02;;;;;;;19.58;100.00;96265.84;5107798;28;20859;-65
2021/08/29 04:16:22;;;;;;;5.65;2.25;;;;;;;18.69;100.00;96154.56;5106033;28;20056;-64
2021/08/29 04:18:49;;;;;;;1.15;1.15;;;;;;;19.77;100.00;96262.84;5106586;28;20062;-64
2021/08/29 04:21:18;;;;;;;0.70;0.70;;;;;;;19.77;100.00;96270.47;5105805;28;20066;-64
2021/08/29 04:23:45;;;;;;;0.80;0.80;;;;;;;19.80;100.00;96272.38;5107419;28;20061;-64
2021/08/29 04:26:12;;;;;;;0.90;0.90;;;;;;;19.84;100.00;96281.50;5107314;27;20043;-64
2021/08/29 04:28:39;;;;;;;1.30;1.30;;;;;;;19.53;100.00;96231.47;5107181;28;20047;-64
2021/08/29 04:31:10;;;;;;;1.00;1.00;;;;;;;19.89;100.00;96272.50;5107113;28;20135;-65
2021/08/29 04:33:37;;;;;;;0.95;0.95;;;;;;;19.79;100.00;96243.47;5106662;28;20092;-67
2021/08/29 04:36:05;;;;;;;0.90;0.90;;;;;;;19.88;100.00;96251.25;5107123;28;20137;-66
2021/08/29 04:38:31;;;;;;;0.80;0.80;;;;;;;20.04;100.00;96265.19;5107005;28;20070;-64
2021/08/29 04:40:58;;;;;;;1.05;1.05;;;;;;;20.10;100.00;96280.25;5106514;28;20527;-64
2021/08/29 04:43:25;;;;;;;0.80;0.80;;;;;;;20.19;100.00;96260.69;5106526;28;20047;-64
2021/08/29 04:45:52;;;;;;;1.00;1.00;;;;;;;20.39;100.00;96269.69;5105445;28;20067;-67
2021/08/29 04:48:20;;;;;;;1.20;1.20;;;;;;;20.50;100.00;96270.09;5106657;28;20043;-67
2021/08/29 04:50:47;;;;;;;1.15;1.15;;;;;;;20.43;100.00;96273.16;5106633;28;20054;-65
2021/08/29 04:53:14;;;;;;;0.80;0.80;;;;;;;20.28;100.00;96246.75;5105807;28;20056;-67
2021/08/29 04:55:41;;;;;;;1.17;1.17;;;;;;;20.66;100.00;96269.94;5106354;28;20049;-66
2021/08/29 04:58:08;;;;;;;0.93;0.93;;;;;;;20.82;100.00;96264.94;5106268;28;20051;-65
2021/08/29 05:00:34;;;;;;;1.05;1.05;;;;;;;20.98;100.00;96272.44;5106497;28;20353;-65
2021/08/29 05:03:06;;;;;;;0.90;0.90;;;;;;;20.83;100.00;96274.16;5106352;28;20509;-65
2021/08/29 05:05:33;;;;;;;2.17;2.03;;;;;;;21.02;100.00;96270.28;5106276;28;20132;-65
2021/08/29 05:07:59;;;;;;;0.80;0.80;;;;;;;21.19;100.00;96273.69;5106344;28;20055;-65
2021/08/29 05:10:26;;;;;;;0.93;0.93;;;;;;;21.32;100.00;96272.38;5106294;28;20048;-65
2021/08/29 05:12:53;;;;;;;1.20;1.20;;;;;;;21.40;100.00;96275.72;5106259;28;20051;-64
2021/08/29 05:15:19;;;;;;;1.20;1.20;;;;;;;21.05;100.00;96207.41;5106294;27;20267;-64
2021/08/29 05:17:46;;;;;;;1.00;1.00;;;;;;;21.56;100.00;96273.47;5106066;28;20521;-65
2021/08/29 05:20:13;;;;;;;1.10;1.10;;;;;;;21.47;100.00;96270.59;5104723;28;20155;-65
2021/08/29 05:22:40;;;;;;;0.90;0.90;;;;;;;21.46;100.00;96257.75;5105966;27;20052;-66
2021/08/29 05:25:07;;;;;;;1.20;1.20;;;;;;;21.60;100.00;96271.31;5105882;28;20560;-65
2021/08/29 05:27:34;;;;;;;0.90;0.90;;;;;;;21.72;100.00;96276.06;5105943;28;20063;-66
2021/08/29 05:30:01;;;;;;;1.48;1.40;;;;;;;21.74;100.00;96251.03;5105783;27;20147;-66
2021/08/29 05:32:28;;;;;;;1.50;1.50;;;;;;;21.86;100.00;96258.63;5105852;28;20044;-65
2021/08/29 05:34:54;;;;;;;2.42;2.33;;;;;;;22.11;100.00;96277.38;5105558;28;20058;-65
2021/08/29 05:37:21;;;;;;;1.65;1.65;;;;;;;22.28;100.00;96276.66;5105766;28;20047;-66
2021/08/29 05:39:48;;;;;;;2.92;1.92;;;;;;;22.19;100.00;96242.75;5104248;28;20051;-64
2021/08/29 05:42:14;;;;;;;1.25;1.25;;;;;;;22.57;100.00;96267.81;5105442;28;20058;-64
2021/08/29 05:44:41;;;;;;;2.50;1.95;;;;;;;22.61;100.00;96278.94;5104426;28;20054;-67
2021/08/29 05:47:08;;;;;;;1.30;1.30;;;;;;;22.61;99.14;96278.94;5105577;28;20054;-65
2021/08/29 05:49:35;;;;;;;1.80;1.70;;;;;;;22.76;98.66;96275.06;5105507;28;20094;-64
2021/08/29 05:52:02;;;;;;;1.25;1.25;;;;;;;22.72;99.09;96251.84;5105110;28;20070;-64
2021/08/29 05:54:29;;;;;;;1.20;1.20;;;;;;;22.87;97.67;96277.44;5105547;28;20047;-66
2021/08/29 05:56:55;;;;;;;1.10;1.10;;;;;;;22.54;96.88;96262.31;5105501;28;20048;-65
2021/08/29 05:59:22;;;;;;;2.15;2.05;;;;;;;22.78;97.07;96249.19;5105638;28;20062;-65
2021/08/29 06:01:49;;;;;;;1.20;1.20;;;;;;;23.00;97.68;96267.53;5105572;28;20063;-65
2021/08/29 06:04:16;;;;;;;1.25;1.25;;;;;;;23.13;98.45;96258.91;5102995;28;20112;-64
2021/08/29 06:06:43;;;;;;;2.50;1.95;;;;;;;22.91;96.15;96218.72;5105134;28;20071;-63
2021/08/29 06:09:09;;;;;;;2.45;2.25;;;;;;;23.25;95.82;96266.44;5104977;28;20069;-65
2021/08/29 06:11:36;;;;;;;3.03;2.65;;;;;;;23.28;95.83;96259.88;5105082;28;20051;-63
2021/08/29 06:14:05;;;;;;;1.30;1.30;;;;;;;23.03;96.21;96203.69;5103515;28;20437;-66
2021/08/29 06:16:33;;;;;;;2.30;2.17;;;;;;;23.56;97.38;96252.91;5103364;28;20051;-64
2021/08/29 06:18:59;;;;;;;1.60;1.60;;;;;;;23.92;94.08;96266.19;5104941;28;20490;-65
2021/08/29 06:21:26;;;;;;;2.30;2.20;;;;;;;24.00;90.90;96224.97;5103440;28;20048;-63
2021/08/29 06:23:53;;;;;;;1.60;1.60;;;;;;;24.41;88.92;96256.06;5104965;28;20362;-65
2021/08/29 06:26:20;;;;;;;1.33;1.33;;;;;;;24.58;88.75;96242.28;5103671;28;20051;-65
2021/08/29 06:28:47;;;;;;;1.58;1.58;;;;;;;24.81;87.64;96245.16;5105127;28;20054;-63
2021/08/29 06:31:14;;;;;;;1.42;1.42;;;;;;;24.89;86.10;96246.34;5102696;28;20060;-65
2021/08/29 06:33:41;;;;;;;1.65;1.65;;;;;;;24.80;85.25;96249.22;5104996;28;20051;-63
2021/08/29 06:36:08;;;;;;;1.80;1.80;;;;;;;24.68;86.60;96247.44;5103204;28;20083;-66
2021/08/29 06:38:34;;;;;;;1.83;1.75;;;;;;;24.93;85.64;96244.09;5104069;28;20064;-63
2021/08/29 06:41:01;;;;;;;1.75;1.75;;;;;;;24.89;85.45;96232.19;5104819;27;20047;-65
2021/08/29 06:43:28;;;;;;;1.60;1.50;;;;;;;24.86;84.63;96198.34;5104284;28;20051;-66
2021/08/29 06:45:55;;;;;;;2.90;2.35;;;;;;;25.40;83.51;96245.31;5104712;28;20135;-62
2021/08/29 06:48:21;;;;;;;1.50;1.50;;;;;;;25.25;82.37;96234.69;5104679;28;20058;-66
2021/08/29 06:50:48;;;;;;;1.90;1.80;;;;;;;25.19;81.04;96225.31;5104706;28;20066;-66
2021/08/29 06:53:15;;;;;;;1.40;1.40;;;;;;;25.38;81.17;96239.31;5102569;28;20066;-65
2021/08/29 06:55:41;;;;;;;1.70;1.70;;;;;;;24.96;83.78;96194.94;5102814;28;20082;-66
2021/08/29 06:58:08;;;;;;;2.47;2.38;;;;;;;25.15;84.18;96230.38;5104466;28;20055;-66
2021/08/29 07:00:35;;;;;;;3.42;3.28;;;;;;;24.54;84.30;96185.81;5102660;28;20055;-66
2021/08/29 07:03:02;;;;;;;1.50;1.50;;;;;;;24.79;87.01;96179.66;5104230;28;20058;-66
2021/08/29 07:05:30;;;;;;;2.08;2.03;;;;;;;24.94;78.61;96186.13;5104128;28;20052;-65
2021/08/29 07:07:56;;;;;;;2.10;2.05;;;;;;;25.50;75.51;96226.94;5102643;28;20047;-64
2021/08/29 07:10:23;;;;;;;1.98;1.88;;;;;;;25.39;73.33;96226.72;5104051;28;20051;-65
2021/08/29 07:12:50;;;;;;;1.65;1.65;;;;;;;25.34;75.74;96208.31;5103900;28;20589;-63
2021/08/29 07:15:17;;;;;;;1.58;1.58;;;;;;;25.37;75.76;96220.75;5103865;28;20051;-64
2021/08/29 07:17:43;;;;;;;2.00;2.00;;;;;;;25.26;74.31;96216.41;5103531;28;20051;-64
2021/08/29 07:20:11;;;;;;;1.45;1.45;;;;;;;25.39;77.82;96212.56;5103038;28;20048;-64
2021/08/29 07:22:37;;;;;;;1.75;1.75;;;;;;;25.32;80.74;96211.63;5102817;28;20047;-64
2021/08/29 07:25:05;;;;;;;1.67;1.67;;;;;;;25.25;80.58;96211.22;5104409;28;20059;-64
2021/08/29 07:27:32;;;;;;;2.05;2.03;;;;;;;25.28;80.97;96188.34;5104230;28;20463;-64
2021/08/29 07:29:58;;;;;;;1.63;1.63;;;;;;;25.64;77.29;96220.47;5104394;28;20043;-64
2021/08/29 07:32:25;;;;;;;1.73;1.73;;;;;;;25.92;76.15;96224.56;5102295;28;20131;-64
2021/08/29 07:34:52;;;;;;;1.98;1.88;;;;;;;25.98;76.24;96228.25;5103875;28;20048;-64
2021/08/29 07:37:21;;;;;;;1.60;1.60;;;;;;;26.03;73.45;96219.09;5103775;28;20073;-66
2021/08/29 07:39:48;;;;;;;1.77;1.77;;;;;;;26.06;73.47;96195.41;5103891;28;20157;-63
2021/08/29 07:42:15;;;;;;;1.60;1.60;;;;;;;26.36;73.49;96236.63;5101577;28;20499;-64
2021/08/29 07:44:42;;;;;;;2.17;2.08;;;;;;;26.49;73.38;96217.22;5101755;28;20151;-63
2021/08/29 07:47:08;;;;;;;4.93;4.55;;;;;;;26.07;72.14;96152.31;5101765;28;20130;-64
2021/08/29 07:49:35;;;;;;;15.73;13.70;;;;;;;26.55;71.83;96220.91;5102223;28;20059;-64
2021/08/29 07:52:02;;;;;;;14.93;13.13;;;;;;;26.60;72.03;96220.19;5101601;28;20054;-63
2021/08/29 07:54:29;;;;;;;16.80;15.10;;;;;;;25.69;72.72;96090.03;5101921;28;20058;-65
2021/08/29 07:56:55;;;;;;;16.77;14.68;;;;;;;26.54;71.22;96230.72;5101780;28;20055;-63
2021/08/29 07:59:22;;;;;;;19.20;14.80;;;;;;;26.17;70.67;96218.28;5102778;28;20043;-62
2021/08/29 08:01:49;;;;;;;19.23;14.45;;;;;;;26.20;74.52;96211.59;5103160;28;20490;-62
2021/08/29 08:04:16;;;;;;;17.67;14.75;;;;;;;26.32;72.94;96210.50;5103294;28;20062;-63
2021/08/29 08:06:43;;;;;;;16.85;13.63;;;;;;;26.26;71.90;96193.38;5103747;28;20047;-62
2021/08/29 08:09:09;;;;;;;16.02;14.10;;;;;;;26.30;70.95;96159.09;5103552;28;20050;-63
2021/08/29 08:11:36;;;;;;;14.60;13.10;;;;;;;26.68;67.14;96201.50;5103412;28;20161;-64
2021/08/29 08:14:03;;;;;;;20.25;14.75;;;;;;;26.68;71.21;96192.97;5103774;28;20504;-63
2021/08/29 08:16:30;;;;;;;15.18;13.27;;;;;;;26.58;69.09;96200.03;5104904;28;20103;-63
2021/08/29 08:18:58;;;;;;;18.60;14.20;;;;;;;26.81;70.38;96203.97;5103870;28;20070;-63
2021/08/29 08:21:25;;;;;;;15.25;13.50;;;;;;;27.04;66.43;96200.91;5101658;28;20043;-63
2021/08/29 08:23:51;;;;;;;16.63;14.27;;;;;;;26.96;67.27;96191.25;5103179;28;20064;-61
2021/08/29 08:26:18;;;;;;;17.02;14.02;;;;;;;27.00;67.42;96199.56;5102783;28;20055;-63
2021/08/29 08:28:45;;;;;;;15.15;13.52;;;;;;;27.05;67.86;96174.00;5104775;28;20631;-62
2021/08/29 08:31:11;;;;;;;16.80;12.60;;;;;;;27.25;64.13;96185.34;5106287;28;20517;-61
2021/08/29 08:33:38;;;;;;;16.10;13.15;;;;;;;27.22;66.04;96194.88;5106790;27;20063;-63
2021/08/29 08:36:05;;;;;;;16.83;13.93;;;;;;;27.47;65.13;96182.78;5106876;28;20051;-61
2021/08/29 08:38:31;;;;;;;18.17;13.70;;;;;;;27.45;63.07;96176.81;5106696;28;20051;-61
2021/08/29 08:40:58;;;;;;;15.77;13.70;;;;;;;27.29;64.09;96168.88;5105148;28;20146;-62
2021/08/29 08:43:25;;;;;;;18.60;14.23;;;;;;;27.54;63.90;96179.47;5106575;28;20059;-62
2021/08/29 08:45:52;;;;;;;15.13;13.63;;;;;;;27.46;62.34;96141.38;5106613;28;20048;-63
2021/08/29 08:48:21;;;;;;;14.45;13.05;;;;;;;27.88;62.14;96167.09;5106658;28;20063;-61
2021/08/29 08:50:50;;;;;;;15.18;13.63;;;;;;;28.07;59.15;96173.97;5107244;28;20061;-61
2021/08/29 08:53:19;;;;;;;15.88;13.35;;;;;;;28.14;59.24;96170.66;5106409;28;20047;-62
2021/08/29 08:55:47;;;;;;;17.23;14.00;;;;;;;28.05;59.93;96170.88;5106787;28;20126;-62
2021/08/29 08:58:18;;;;;;;15.50;13.98;;;;;;;27.71;60.07;96174.69;5106334;28;20418;-61
2021/08/29 09:00:45;;;;;;;16.65;14.93;;;;;;;27.75;60.63;96146.81;5106361;27;20043;-62
2021/08/29 09:03:15;;;;;;;15.55;13.68;;;;;;;28.17;60.92;96170.94;5106194;28;20086;-62
2021/08/29 09:05:41;;;;;;;32.30;21.13;;;;;;;28.18;55.59;96139.88;5106448;28;20134;-62
2021/08/29 09:08:08;;;;;;;16.70;13.75;;;;;;;28.10;55.62;96149.41;5104957;28;20512;-61
2021/08/29 09:10:35;;;;;;;18.13;15.13;;;;;;;27.90;58.21;96141.75;5106003;27;20063;-62
2021/08/29 09:13:04;;;;;;;16.52;13.82;;;;;;;27.93;57.39;96165.59;5104479;28;20534;-62
2021/08/29 09:15:31;;;;;;;18.95;15.32;;;;;;;28.07;55.84;96168.28;5106142;28;20413;-61
2021/08/29 09:17:59;;;;;;;16.02;13.80;;;;;;;27.95;55.29;96163.81;5105754;28;20078;-61
2021/08/29 09:20:36;;;;;;;19.67;15.07;;;;;;;28.05;56.13;96150.94;5106250;28;20226;-62
2021/08/29 09:23:08;;;;;;;21.70;14.52;;;;;;;28.07;54.69;96168.28;5105231;28;20109;-61
2021/08/29 09:25:41;;;;;;;17.85;13.60;;;;;;;27.54;56.44;96159.53;5106168;28;20086;-62
2021/08/29 09:28:11;;;;;;;17.73;13.43;;;;;;;27.09;57.08;96168.91;5106480;28;20047;-61
2021/08/29 09:30:45;;;;;;;16.52;13.85;;;;;;;27.57;55.07;96158.53;5104364;28;20060;-61
2021/08/29 09:33:12;;;;;;;19.35;15.85;;;;;;;27.82;58.25;96160.56;5103977;28;20531;-62
2021/08/29 09:35:39;;;;;;;16.80;15.00;;;;;;;27.96;56.01;96122.63;5105568;28;20057;-63
2021/08/29 09:38:11;;;;;;;18.13;14.77;;;;;;;28.29;58.13;96146.94;5107591;27;20074;-62
2021/08/29 09:40:38;;;;;;;17.35;14.18;;;;;;;27.75;55.44;96072.00;5105899;28;20062;-64
2021/08/29 09:43:08;;;;;;;17.33;15.55;;;;;;;27.98;56.01;96147.75;5105396;28;20374;-63
2021/08/29 09:45:37;;;;;;;22.15;16.40;;;;;;;28.10;53.41;96147.34;5105144;28;20052;-64
2021/08/29 09:48:06;;;;;;;23.25;17.90;;;;;;;28.44;51.92;96151.16;5105612;28;20550;-63
2021/08/29 09:50:37;;;;;;;25.98;18.05;;;;;;;28.67;52.99;96129.28;5105193;28;20154;-63
2021/08/29 09:53:10;;;;;;;21.92;17.65;;;;;;;28.48;52.99;96099.66;5105637;28;20078;-62
2021/08/29 09:55:38;;;;;;;;;;;;;;;28.22;54.25;96138.88;5106101;28;20044;-63
2021/08/29 09:58:31;;;;;;;21.30;15.88;;;;;;;27.28;56.76;96153.09;5105474;28;19923;-63
2021/08/29 10:01:12;;;;;;;21.75;17.90;;;;;;;27.48;56.56;96092.50;5105575;28;20060;-62
2021/08/29 10:03:47;;;;;;;23.77;16.60;;;;;;;27.62;56.19;96126.50;5103532;28;20142;-63
2021/08/29 10:06:20;;;;;;;24.02;18.60;;;;;;;28.09;55.53;96137.22;5105271;28;20433;-62
2021/08/29 10:08:47;;;;;;;21.80;19.15;;;;;;;27.89;59.89;96133.72;5104323;28;20050;-61
2021/08/29 10:11:14;;;;;;;26.73;20.70;;;;;;;28.12;56.38;96136.22;5105029;28;20043;-62
2021/08/29 10:13:42;;;;;;;23.58;17.63;;;;;;;28.02;54.73;96097.84;5104814;28;20051;-62
2021/08/29 10:16:09;;;;;;;18.63;15.43;;;;;;;28.46;53.21;96130.69;5103198;28;20047;-62
2021/08/29 10:18:47;;;;;;;20.73;17.60;;;;;;;28.51;52.94;96127.91;5104746;28;20534;-61
2021/08/29 10:21:16;;;;;;;18.42;16.35;;;;;;;28.89;52.53;96137.91;5103326;28;20051;-62
2021/08/29 10:23:45;;;;;;;19.63;16.08;;;;;;;29.19;50.83;96130.50;5103259;28;20051;-63
2021/08/29 10:26:14;;;;;;;21.88;16.60;;;;;;;29.23;50.83;96119.59;5104695;28;20054;-62
2021/08/29 10:29:06;;;;;;;21.30;18.48;;;;;;;29.79;50.64;96120.47;5104739;28;20065;-64
2021/08/29 10:31:49;;;;;;;20.63;16.73;;;;;;;29.00;50.52;96073.13;5095808;28;20065;-62
2021/08/29 10:34:16;;;;;;;28.05;22.63;;;;;;;29.12;52.47;96108.19;5103232;28;20082;-61
2021/08/29 10:36:43;;;;;;;19.98;17.25;;;;;;;28.46;52.27;96043.16;5104524;28;20126;-61
2021/08/29 10:39:10;;;;;;;29.38;21.73;;;;;;;28.77;53.73;96110.66;5104715;28;20055;-63
2021/08/29 10:41:39;;;;;;;20.70;17.58;;;;;;;27.98;53.00;96091.59;5103024;28;20062;-62
2021/08/29 10:44:05;;;;;;;18.20;16.23;;;;;;;27.77;53.32;96101.50;5103118;28;20052;-61
2021/08/29 10:46:34;;;;;;;24.63;18.30;;;;;;;28.26;55.88;96113.75;5104656;28;20047;-62
2021/08/29 10:49:01;;;;;;;22.30;18.92;;;;;;;29.00;54.72;96109.44;5104313;28;20062;-62
2021/08/29 10:51:29;;;;;;;25.48;19.83;;;;;;;29.42;53.97;96097.84;5103755;28;20058;-62
2021/08/29 10:53:58;;;;;;;19.95;17.02;;;;;;;28.86;51.33;96104.72;5103243;28;20074;-63
2021/08/29 10:56:33;;;;;;;24.63;18.52;;;;;;;28.96;52.15;96100.34;5104645;28;20044;-65
2021/08/29 10:59:09;;;;;;;23.77;20.48;;;;;;;29.27;53.54;96108.72;5104395;28;20056;-62
2021/08/29 11:01:41;;;;;;;21.80;17.58;;;;;;;29.69;51.68;96105.66;5104911;28;20366;-62
2021/08/29 11:04:17;;;;;;;20.30;16.77;;;;;;;29.25;50.78;96099.91;5103184;28;20108;-63
2021/08/29 11:06:55;;;;;;;21.90;17.60;;;;;;;29.63;50.30;96093.44;5104660;28;20186;-63
2021/08/29 11:09:31;;;;;;;18.83;16.15;;;;;;;29.01;49.60;96091.78;5104811;28;20048;-63
2021/08/29 11:12:27;;;;;;;20.85;18.13;;;;;;;29.39;51.42;96093.16;5102966;28;20066;-64
2021/08/29 11:14:56;;;;;;;22.05;17.02;;;;;;;28.79;50.82;96033.94;5098665;28;20047;-63
2021/08/29 11:17:33;;;;;;;26.33;19.77;;;;;;;28.65;52.68;96091.94;5104119;28;20051;-64
2021/08/29 11:20:02;;;;;;;21.92;16.27;;;;;;;28.74;52.13;96080.34;5103973;28;20051;-63
2021/08/29 11:22:47;;;;;;;20.83;17.02;;;;;;;28.58;52.61;96081.06;5103896;28;20567;-64
2021/08/29 11:25:22;;;;;;;22.27;18.58;;;;;;;28.10;51.93;96015.56;5102893;28;20165;-63
2021/08/29 11:27:50;;;;;;;33.28;23.52;;;;;;;29.16;53.40;96075.28;5104539;28;20043;-64
2021/08/29 11:30:21;;;;;;;30.00;20.95;;;;;;;29.17;49.59;96058.91;5103842;28;20050;-61
2021/08/29 11:33:01;;;;;;;23.42;18.63;;;;;;;29.07;50.46;96077.59;5104159;28;20082;-62